Time;durP1;ratioP1;P1;durP2;ratioP2;P2;SDS_P1;SDS_P2;PMS_P1;PMS_P2;Temp;Humidity;BMP_temperature;BMP_pressure;BME280_temperature;BME280_humidity;BME280_pressure;Samples;Min_cycle;Max_cycle;Signal;HPM_P1;HPM_P2
2022/06/27 00:02:26;;;;;;;4.40;3.80;;;;;;;18.17;65.07;96768.76;107577;1271;50293;-77
2022/06/27 00:04:57;;;;;;;4.20;3.40;;;;;;;18.03;65.19;96768.91;107636;1271;48403;-77
2022/06/27 00:07:28;;;;;;;3.60;3.10;;;;;;;17.95;65.49;96771.55;107687;1270;45416;-77
2022/06/27 00:09:59;;;;;;;6.50;3.60;;;;;;;18.02;65.57;96771.85;107697;1270;43096;-77
2022/06/27 00:12:31;;;;;;;4.90;3.30;;;;;;;18.12;65.49;96766.11;107762;1271;39622;-77
2022/06/27 00:15:02;;;;;;;7.00;3.50;;;;;;;18.28;65.41;96764.27;107518;1270;97041;-77
2022/06/27 00:17:33;;;;;;;5.20;3.40;;;;;;;18.35;64.89;96762.64;107593;1270;33544;-77
2022/06/27 00:20:05;;;;;;;4.10;3.60;;;;;;;18.24;64.88;96763.58;107653;1270;35937;-77
2022/06/27 00:22:36;;;;;;;4.60;3.30;;;;;;;18.16;65.13;96768.09;107678;1271;36670;-77
2022/06/27 00:25:10;;;;;;;3.70;2.80;;;;;;;18.21;65.12;96770.91;107691;1270;34746;-77
2022/06/27 00:27:41;;;;;;;3.60;2.90;;;;;;;18.26;65.05;96773.11;107741;1271;34726;-77
2022/06/27 00:30:13;;;;;;;3.80;2.80;;;;;;;18.32;64.85;96772.81;107644;1270;31058;-77
2022/06/27 00:32:44;;;;;;;5.50;3.40;;;;;;;18.26;64.64;96776.02;107680;1270;50653;-77
2022/06/27 00:35:15;;;;;;;3.60;3.30;;;;;;;18.25;64.68;96771.90;107704;1270;41018;-77
2022/06/27 00:37:47;;;;;;;4.80;3.80;;;;;;;18.34;64.78;96772.71;107596;1270;44475;-77
2022/06/27 00:40:18;;;;;;;4.30;3.70;;;;;;;18.37;64.53;96770.23;107623;1271;42021;-77
2022/06/27 00:42:49;;;;;;;6.90;3.70;;;;;;;18.39;64.54;96767.23;107646;1270;37065;-77
2022/06/27 00:45:20;;;;;;;5.40;3.60;;;;;;;18.40;64.52;96766.76;107621;1270;38939;-77
2022/06/27 00:47:51;;;;;;;4.20;3.30;;;;;;;18.41;64.36;96768.37;107578;1270;53581;-77
2022/06/27 00:50:23;;;;;;;5.20;3.60;;;;;;;18.30;64.49;96765.27;107627;1269;46778;-77
2022/06/27 00:52:54;;;;;;;4.80;3.40;;;;;;;18.08;64.71;96765.03;107662;1269;35304;-77
2022/06/27 00:55:25;;;;;;;4.20;3.40;;;;;;;18.03;65.29;96768.05;107672;1270;32898;-77
2022/06/27 00:57:56;;;;;;;4.50;3.50;;;;;;;17.86;65.80;96769.25;107675;1270;33323;-77
2022/06/27 01:00:27;;;;;;;4.80;3.80;;;;;;;17.72;66.36;96767.30;107717;1270;36162;-76
2022/06/27 01:02:58;;;;;;;5.30;3.60;;;;;;;17.73;66.70;96768.02;107578;1271;39657;-76
2022/06/27 01:05:29;;;;;;;3.70;3.10;;;;;;;17.87;66.45;96769.63;107714;1270;32243;-77
2022/06/27 01:08:01;;;;;;;4.30;3.20;;;;;;;18.02;66.29;96775.29;107692;1270;41773;-77
2022/06/27 01:10:32;;;;;;;3.90;3.40;;;;;;;18.08;66.19;96774.15;107738;1270;34844;-77
2022/06/27 01:13:03;;;;;;;4.50;3.80;;;;;;;18.10;66.02;96769.10;107591;1270;34116;-77
2022/06/27 01:15:34;;;;;;;4.70;3.40;;;;;;;18.14;66.09;96771.70;107528;1270;65229;-77
2022/06/27 01:18:07;;;;;;;6.30;4.00;;;;;;;18.17;66.05;96771.23;107588;1271;43150;-77
2022/06/27 01:20:41;;;;;;;4.70;3.50;;;;;;;18.19;66.10;96772.04;107599;1270;43252;-77
2022/06/27 01:23:13;;;;;;;4.20;3.80;;;;;;;18.21;66.09;96773.82;107591;1270;40354;-77
2022/06/27 01:25:45;;;;;;;3.60;3.30;;;;;;;18.09;66.18;96776.10;107599;1270;42540;-77
2022/06/27 01:28:16;;;;;;;5.20;3.80;;;;;;;18.10;66.34;96777.45;107627;1270;41495;-77
2022/06/27 01:30:48;;;;;;;5.20;3.90;;;;;;;18.24;66.40;96774.84;107582;1271;35406;-77
2022/06/27 01:33:19;;;;;;;5.60;4.20;;;;;;;18.37;66.16;96772.25;107645;1270;35566;-77
2022/06/27 01:36:41;;;;;;;4.50;4.10;;;;;;;18.43;65.98;96768.23;107676;1270;32035;-77
2022/06/27 01:38:41;;;;;;;4.80;3.90;;;;;;;18.46;65.83;96770.66;107569;1270;35783;-77
2022/06/27 01:41:13;;;;;;;4.60;4.00;;;;;;;18.44;65.68;96767.46;107583;1271;28988;-77
2022/06/27 01:43:44;;;;;;;4.90;4.00;;;;;;;18.40;65.75;96769.45;107658;1270;39169;-77
2022/06/27 01:46:16;;;;;;;5.10;4.20;;;;;;;18.35;65.93;96769.17;107641;1269;46133;-77
2022/06/27 01:48:47;;;;;;;5.90;4.10;;;;;;;18.35;65.94;96767.34;107632;1270;57882;-77
2022/06/27 01:51:19;;;;;;;6.40;4.80;;;;;;;18.33;65.74;96767.26;107648;1270;30915;-77
2022/06/27 01:53:52;;;;;;;6.70;4.20;;;;;;;18.32;65.70;96770.30;107658;1269;32503;-77
2022/06/27 01:56:23;;;;;;;6.40;3.90;;;;;;;18.33;65.71;96767.86;107552;1270;42515;-77
2022/06/27 01:58:57;;;;;;;5.10;4.10;;;;;;;18.32;65.87;96770.05;107580;1271;45579;-77
2022/06/27 02:01:29;;;;;;;5.20;4.40;;;;;;;18.27;65.81;96769.83;107712;1270;34549;-77
2022/06/27 02:04:01;;;;;;;9.60;4.70;;;;;;;18.20;65.81;96771.11;107791;1271;41254;-77
2022/06/27 02:06:33;;;;;;;4.20;3.80;;;;;;;18.19;65.98;96772.00;107702;1271;30296;-77
2022/06/27 02:09:07;;;;;;;5.90;4.50;;;;;;;18.18;66.00;96770.17;107656;1271;34818;-77
2022/06/27 02:11:40;;;;;;;6.20;4.30;;;;;;;18.27;66.00;96771.02;107647;1271;33287;-77
2022/06/27 02:14:11;;;;;;;5.30;4.70;;;;;;;18.38;65.81;96772.43;107660;1270;37476;-77
2022/06/27 02:16:43;;;;;;;5.50;4.20;;;;;;;18.48;65.53;96775.35;107668;1270;35464;-77
2022/06/27 02:19:17;;;;;;;6.80;4.90;;;;;;;18.48;65.35;96779.40;107644;1270;33977;-77
2022/06/27 02:21:49;;;;;;;6.10;4.90;;;;;;;18.52;65.31;96780.07;107658;1271;47810;-77
2022/06/27 02:24:20;;;;;;;7.00;5.00;;;;;;;18.52;65.16;96783.25;107617;1270;34198;-77
2022/06/27 02:26:52;;;;;;;5.60;4.40;;;;;;;18.51;65.16;96781.20;107638;1268;40133;-77
2022/06/27 02:29:23;;;;;;;5.60;4.30;;;;;;;18.49;65.18;96780.14;107671;1269;33286;-77
2022/06/27 02:31:55;;;;;;;5.00;4.30;;;;;;;18.52;65.17;96785.22;107544;1271;41514;-77
2022/06/27 02:34:26;;;;;;;5.30;4.50;;;;;;;18.58;65.17;96783.85;107713;1268;43522;-77
2022/06/27 02:36:58;;;;;;;5.00;4.50;;;;;;;18.62;65.01;96782.63;107713;1271;35279;-77
2022/06/27 02:39:31;;;;;;;5.90;4.60;;;;;;;18.63;64.88;96782.77;107648;1271;37959;-77
2022/06/27 02:42:06;;;;;;;6.60;4.90;;;;;;;18.68;64.76;96779.05;107622;1270;46025;-77
2022/06/27 02:44:39;;;;;;;7.80;4.70;;;;;;;18.70;64.50;96776.19;107634;1270;39133;-77
2022/06/27 02:47:11;;;;;;;8.80;4.70;;;;;;;18.71;64.47;96776.75;107610;1270;47423;-77
2022/06/27 02:49:42;;;;;;;8.90;4.90;;;;;;;18.66;64.50;96775.74;107645;1271;45902;-77
2022/06/27 02:52:20;;;;;;;5.60;4.50;;;;;;;18.60;64.56;96773.45;107607;1269;34339;-77
2022/06/27 02:54:55;;;;;;;6.10;4.20;;;;;;;18.64;64.73;96775.52;107682;1270;31685;-77
2022/06/27 02:57:32;;;;;;;5.00;4.50;;;;;;;18.68;64.55;96769.52;107628;1271;39118;-77
2022/06/27 03:00:05;;;;;;;5.50;4.20;;;;;;;18.59;64.60;96772.85;107654;1270;49461;-77
2022/06/27 03:02:39;;;;;;;7.50;4.90;;;;;;;18.53;64.92;96770.23;107728;1271;49192;-77
2022/06/27 03:05:10;;;;;;;6.20;4.40;;;;;;;18.53;64.99;96773.06;107573;1271;50688;-77
2022/06/27 03:07:42;;;;;;;6.90;4.60;;;;;;;18.57;65.02;96776.20;107628;1271;43022;-77
2022/06/27 03:10:14;;;;;;;4.80;4.40;;;;;;;18.59;64.93;96780.31;107570;1270;33642;-77
2022/06/27 03:12:45;;;;;;;8.00;4.60;;;;;;;18.64;64.82;96777.45;107672;1270;31758;-77
2022/06/27 03:15:16;;;;;;;6.50;4.70;;;;;;;18.68;64.78;96778.73;107680;1270;39556;-77
2022/06/27 03:17:47;;;;;;;6.30;4.80;;;;;;;18.70;64.71;96778.20;107623;1271;34742;-77
2022/06/27 03:20:19;;;;;;;6.50;4.80;;;;;;;18.73;64.64;96783.61;107700;1270;30981;-77
2022/06/27 03:22:50;;;;;;;7.80;4.80;;;;;;;18.77;64.60;96786.73;107622;1270;42093;-77
2022/06/27 03:25:21;;;;;;;5.40;4.50;;;;;;;18.80;64.59;96783.16;107518;1270;84325;-77
2022/06/27 03:27:52;;;;;;;5.70;4.50;;;;;;;18.80;64.60;96785.34;107534;1271;35534;-76
2022/06/27 03:30:23;;;;;;;6.70;4.70;;;;;;;18.79;64.62;96787.83;107601;1270;38961;-75
2022/06/27 03:32:54;;;;;;;6.90;4.90;;;;;;;18.84;64.69;96792.31;107668;1270;32328;-75
2022/06/27 03:35:26;;;;;;;6.50;4.70;;;;;;;18.90;64.64;96789.95;107639;1267;32591;-74
2022/06/27 03:37:57;;;;;;;8.00;4.70;;;;;;;18.92;64.56;96793.93;107562;1272;32617;-75
2022/06/27 03:40:28;;;;;;;7.10;4.70;;;;;;;18.98;64.39;96794.00;107585;1272;36187;-75
2022/06/27 03:42:59;;;;;;;7.00;4.80;;;;;;;19.06;64.25;96798.04;107747;1270;34045;-74
2022/06/27 03:45:31;;;;;;;5.70;4.60;;;;;;;19.13;64.11;96797.30;107670;1271;43788;-74
2022/06/27 03:48:04;;;;;;;7.20;4.80;;;;;;;19.20;63.85;96795.20;107663;1270;41887;-75
2022/06/27 03:50:36;;;;;;;6.50;5.10;;;;;;;19.28;63.79;96795.32;107623;1270;34347;-75
2022/06/27 03:53:07;;;;;;;5.70;4.60;;;;;;;19.33;63.74;96801.80;107638;1271;35281;-75
2022/06/27 03:55:39;;;;;;;5.40;4.80;;;;;;;19.38;63.62;96803.58;107622;1271;34005;-75
2022/06/27 03:58:10;;;;;;;8.30;4.30;;;;;;;19.45;63.44;96802.01;107574;1271;47283;-75
2022/06/27 04:00:42;;;;;;;6.40;4.60;;;;;;;19.52;63.50;96803.54;107641;1269;39597;-75
2022/06/27 04:03:13;;;;;;;7.40;4.90;;;;;;;19.60;63.47;96804.38;107597;1272;42030;-75
2022/06/27 04:05:45;;;;;;;5.60;4.70;;;;;;;19.66;63.57;96810.59;107633;1271;34004;-74
2022/06/27 04:08:16;;;;;;;5.90;5.10;;;;;;;19.70;63.41;96809.48;107601;1271;39220;-74
2022/06/27 04:10:47;;;;;;;5.50;4.30;;;;;;;19.77;63.39;96808.73;107653;1270;38663;-74
2022/06/27 04:13:19;;;;;;;5.60;4.20;;;;;;;19.80;63.02;96809.63;107630;1270;38107;-74
2022/06/27 04:15:51;;;;;;;5.50;4.40;;;;;;;19.81;63.10;96813.86;107593;1270;32975;-74
2022/06/27 04:18:22;;;;;;;5.40;4.60;;;;;;;19.79;63.25;96815.34;107610;1270;51768;-74
2022/06/27 04:20:54;;;;;;;5.10;4.50;;;;;;;19.84;63.00;96819.34;107669;1271;31851;-74
2022/06/27 04:23:25;;;;;;;6.50;4.90;;;;;;;19.95;62.86;96817.19;107544;1271;32350;-74
2022/06/27 04:25:57;;;;;;;6.00;5.00;;;;;;;20.09;62.43;96823.27;107627;1270;32514;-74
2022/06/27 04:28:28;;;;;;;6.20;4.80;;;;;;;20.20;62.22;96819.92;107701;1270;40160;-74
2022/06/27 04:30:59;;;;;;;6.40;4.70;;;;;;;20.32;61.84;96819.34;107672;1271;33979;-74
2022/06/27 04:33:30;;;;;;;5.10;4.50;;;;;;;20.44;62.13;96819.36;107699;1271;34730;-74
2022/06/27 04:36:02;;;;;;;5.30;4.80;;;;;;;20.58;61.83;96822.11;107665;1269;43680;-74
2022/06/27 04:38:34;;;;;;;6.60;4.20;;;;;;;20.64;61.47;96824.75;107631;1268;33014;-75
2022/06/27 04:41:05;;;;;;;6.00;4.10;;;;;;;20.72;61.47;96825.34;107634;1270;29717;-75
2022/06/27 04:43:36;;;;;;;5.50;4.90;;;;;;;20.84;61.35;96828.76;107601;1271;36313;-74
2022/06/27 04:46:07;;;;;;;6.90;4.70;;;;;;;20.92;61.28;96827.52;107655;1271;41535;-74
2022/06/27 04:48:39;;;;;;;5.60;5.00;;;;;;;20.98;60.93;96829.34;107634;1270;43103;-74
2022/06/27 04:51:11;;;;;;;7.90;4.90;;;;;;;21.10;60.94;96825.45;107604;1270;36083;-74
2022/06/27 04:53:43;;;;;;;7.00;4.40;;;;;;;21.21;60.68;96824.14;107674;1270;32705;-74
2022/06/27 04:56:15;;;;;;;5.60;5.00;;;;;;;21.35;60.61;96826.52;107667;1270;35893;-74
2022/06/27 04:58:46;;;;;;;4.70;4.30;;;;;;;21.49;60.60;96829.20;107601;1271;47328;-75
2022/06/27 05:01:17;;;;;;;6.30;4.90;;;;;;;21.57;60.10;96826.89;107590;1271;38165;-75
2022/06/27 05:03:48;;;;;;;5.20;4.30;;;;;;;21.58;59.78;96826.85;107635;1270;39587;-74
2022/06/27 05:06:19;;;;;;;5.70;4.80;;;;;;;21.69;59.73;96829.84;107676;1270;33942;-74
2022/06/27 05:08:54;;;;;;;5.40;4.70;;;;;;;21.88;59.61;96831.27;107646;1270;33325;-74
2022/06/27 05:11:25;;;;;;;9.00;4.80;;;;;;;22.08;59.26;96833.48;107629;1271;33554;-75
2022/06/27 05:13:56;;;;;;;7.70;4.80;;;;;;;22.36;58.97;96835.52;107693;1270;36161;-74
2022/06/27 05:16:27;;;;;;;6.40;4.70;;;;;;;22.62;58.54;96839.30;107705;1271;30585;-74
2022/06/27 05:18:59;;;;;;;6.90;5.00;;;;;;;22.99;58.44;96839.40;107728;1270;31542;-75
2022/06/27 05:21:30;;;;;;;5.80;4.60;;;;;;;23.34;57.54;96842.85;107629;1270;43321;-75
2022/06/27 05:24:01;;;;;;;6.50;4.60;;;;;;;23.73;56.56;96840.48;107671;1271;32767;-75
2022/06/27 05:26:35;;;;;;;4.70;4.00;;;;;;;25.10;56.26;96843.50;107681;1271;33505;-74
2022/06/27 05:29:06;;;;;;;4.30;3.90;;;;;;;27.60;53.20;96845.87;107651;1271;35540;-76
2022/06/27 05:31:37;;;;;;;6.50;3.90;;;;;;;29.74;49.69;96847.38;107636;1270;31985;-74
2022/06/27 05:34:08;;;;;;;5.20;3.60;;;;;;;31.79;46.31;96847.77;107669;1270;33434;-75
2022/06/27 05:36:39;;;;;;;4.40;3.60;;;;;;;33.19;43.21;96848.68;107662;1271;30735;-76
2022/06/27 05:39:11;;;;;;;4.10;3.70;;;;;;;34.24;40.07;96851.13;107624;1271;68957;-76
2022/06/27 05:41:43;;;;;;;3.90;3.50;;;;;;;34.72;37.29;96852.30;107674;1271;33258;-76
2022/06/27 05:44:14;;;;;;;4.60;3.60;;;;;;;35.33;36.33;96858.53;107656;1271;33775;-76
2022/06/27 05:46:45;;;;;;;3.90;3.50;;;;;;;36.23;35.92;96859.89;107663;1270;33998;-76
2022/06/27 05:49:17;;;;;;;6.00;3.20;;;;;;;37.33;34.18;96862.13;107659;1270;42686;-76
2022/06/27 05:51:49;;;;;;;4.00;3.60;;;;;;;37.55;32.24;96864.61;107639;1271;48899;-76
2022/06/27 05:54:21;;;;;;;3.40;3.10;;;;;;;37.24;31.49;96863.10;107605;1271;61496;-75
2022/06/27 05:56:53;;;;;;;3.80;3.50;;;;;;;37.29;31.23;96862.63;107711;1271;27215;-75
2022/06/27 05:59:25;;;;;;;5.30;3.10;;;;;;;37.87;31.46;96865.25;107670;1270;46048;-76
2022/06/27 06:01:59;;;;;;;4.90;3.80;;;;;;;38.23;29.47;96867.09;107680;1271;34070;-76
2022/06/27 06:04:30;;;;;;;3.40;3.10;;;;;;;38.10;29.36;96868.10;107747;1271;39549;-76
2022/06/27 06:07:02;;;;;;;5.30;3.40;;;;;;;37.86;28.51;96872.35;107758;1270;30098;-76
2022/06/27 06:09:33;;;;;;;5.30;2.80;;;;;;;37.79;29.15;96876.86;107654;1271;34539;-75
2022/06/27 06:12:09;;;;;;;4.40;3.60;;;;;;;38.32;28.01;96869.44;107641;1271;42691;-75
2022/06/27 06:14:42;;;;;;;3.40;3.10;;;;;;;38.41;27.66;96867.46;107651;1271;35334;-74
2022/06/27 06:17:13;;;;;;;3.50;3.20;;;;;;;38.87;27.67;96868.22;107661;1271;30119;-74
2022/06/27 06:19:45;;;;;;;3.60;3.20;;;;;;;39.78;27.37;96873.20;107680;1271;34024;-74
2022/06/27 06:22:17;;;;;;;3.70;3.10;;;;;;;40.21;26.27;96880.30;107677;1271;39084;-74
2022/06/27 06:24:49;;;;;;;4.00;3.70;;;;;;;40.62;25.92;96881.73;107605;1271;37861;-75
2022/06/27 06:27:21;;;;;;;5.20;3.50;;;;;;;41.01;25.38;96881.21;107656;1271;35742;-74
2022/06/27 06:29:54;;;;;;;3.50;3.20;;;;;;;41.29;24.57;96883.71;107628;1271;35985;-73
2022/06/27 06:32:27;;;;;;;4.00;3.60;;;;;;;41.57;24.41;96880.96;107644;1271;36310;-74
2022/06/27 06:34:58;;;;;;;3.50;3.10;;;;;;;41.74;24.09;96881.29;107654;1271;41898;-75
2022/06/27 06:37:31;;;;;;;3.50;3.20;;;;;;;41.96;22.82;96876.61;107739;1271;31955;-75
2022/06/27 06:40:02;;;;;;;4.40;3.20;;;;;;;41.28;23.07;96882.78;107564;1272;34739;-76
2022/06/27 06:42:34;;;;;;;3.10;2.80;;;;;;;41.11;23.44;96880.77;107556;1271;51112;-76
2022/06/27 06:45:07;;;;;;;5.10;2.80;;;;;;;41.52;23.30;96882.80;107542;1271;38523;-76
2022/06/27 06:47:45;;;;;;;3.60;2.70;;;;;;;42.32;22.92;96879.54;107706;1270;66370;-76
2022/06/27 06:50:18;;;;;;;3.70;3.20;;;;;;;42.70;21.49;96883.80;107715;1270;32535;-76
2022/06/27 06:52:51;;;;;;;2.50;2.30;;;;;;;41.89;22.04;96879.38;107651;1270;36764;-76
2022/06/27 06:55:24;;;;;;;3.10;2.60;;;;;;;42.29;22.25;96878.52;107644;1270;37896;-75
2022/06/27 06:57:55;;;;;;;3.10;2.80;;;;;;;42.55;21.82;96878.77;107795;1271;41965;-79
2022/06/27 07:00:27;;;;;;;3.00;2.70;;;;;;;42.44;21.09;96874.60;107446;1271;108896;-79
2022/06/27 07:02:58;;;;;;;3.10;2.60;;;;;;;41.62;21.54;96877.52;107054;1271;137116;-79
2022/06/27 07:05:31;;;;;;;2.70;2.50;;;;;;;41.97;21.83;96876.20;107366;1270;102686;-79
2022/06/27 07:08:03;;;;;;;2.80;2.40;;;;;;;43.00;21.05;96878.03;107365;1270;105446;-80
2022/06/27 07:10:34;;;;;;;2.90;2.70;;;;;;;44.08;20.75;96869.17;107231;1270;104901;-81
2022/06/27 07:13:05;;;;;;;2.80;2.60;;;;;;;44.86;19.61;96875.18;107330;1270;141345;-80
2022/06/27 07:15:38;;;;;;;2.60;2.40;;;;;;;45.10;19.41;96879.52;107312;1271;130596;-80
2022/06/27 07:18:10;;;;;;;3.90;2.60;;;;;;;45.30;18.91;96875.89;107397;1271;97422;-80
2022/06/27 07:20:58;;;;;;;3.90;2.60;;;;;;;44.71;18.80;96874.03;102874;1271;5470149;-78
2022/06/27 07:23:29;;;;;;;3.10;2.30;;;;;;;44.97;19.57;96874.65;107390;1271;131831;-78
2022/06/27 07:26:01;;;;;;;3.10;2.50;;;;;;;46.32;18.19;96872.58;107951;1271;35532;-80
2022/06/27 07:28:32;;;;;;;3.20;2.50;;;;;;;46.01;17.76;96874.58;107966;1270;56558;-78
2022/06/27 07:31:08;;;;;;;3.10;2.40;;;;;;;46.15;17.95;96876.73;107829;1271;41734;-80
2022/06/27 07:33:41;;;;;;;2.60;2.40;;;;;;;45.99;17.34;96874.61;107811;1270;41613;-79
2022/06/27 07:36:15;;;;;;;3.00;2.60;;;;;;;46.44;17.75;96869.70;107909;1270;44645;-78
2022/06/27 07:38:49;;;;;;;4.80;2.80;;;;;;;47.32;17.40;96867.27;107925;1271;27902;-79
2022/06/27 07:41:21;;;;;;;3.00;2.70;;;;;;;48.04;16.79;96865.09;107861;1271;41906;-80
2022/06/27 07:43:54;;;;;;;2.80;2.30;;;;;;;48.04;16.33;96863.83;106991;1271;1236153;-79
2022/06/27 07:46:27;;;;;;;2.60;2.40;;;;;;;48.11;16.38;96865.25;107823;1271;39302;-79
2022/06/27 07:48:59;;;;;;;2.70;2.40;;;;;;;49.02;16.24;96865.98;107896;1271;52014;-80
2022/06/27 07:51:31;;;;;;;5.50;3.30;;;;;;;48.97;15.26;96865.21;107851;1271;38769;-79
2022/06/27 07:54:02;;;;;;;3.00;2.80;;;;;;;48.38;16.16;96865.68;107904;1271;36156;-77
2022/06/27 07:56:34;;;;;;;3.90;2.90;;;;;;;49.20;16.00;96862.23;107694;1271;31819;-77
2022/06/27 07:59:07;;;;;;;2.80;2.60;;;;;;;50.05;15.01;96863.66;107683;1271;32554;-77
2022/06/27 08:01:39;;;;;;;3.20;2.90;;;;;;;50.53;14.69;96865.66;107954;1270;40970;-76
2022/06/27 08:04:14;;;;;;;3.30;3.00;;;;;;;51.16;14.31;96864.58;107859;1271;47537;-76
2022/06/27 08:06:46;;;;;;;3.80;3.00;;;;;;;50.68;13.61;96863.98;108673;1271;33437;-77
2022/06/27 08:09:21;;;;;;;3.20;2.90;;;;;;;49.99;14.05;96863.24;107596;1271;47282;-77
2022/06/27 08:11:52;;;;;;;4.00;3.70;;;;;;;49.57;13.59;96861.91;107606;1271;42917;-76
2022/06/27 08:14:25;;;;;;;4.10;3.40;;;;;;;48.48;14.59;96858.94;107656;1271;34704;-77
2022/06/27 08:16:57;;;;;;;3.80;3.50;;;;;;;49.21;14.91;96859.50;107644;1271;42961;-77
2022/06/27 08:19:29;;;;;;;4.40;4.00;;;;;;;50.41;14.21;96858.54;107669;1271;35892;-77
2022/06/27 08:22:01;;;;;;;4.30;4.00;;;;;;;50.52;13.89;96861.53;107697;1270;49486;-77
2022/06/27 08:24:32;;;;;;;4.70;3.80;;;;;;;49.80;13.92;96859.64;107766;1271;30300;-77
2022/06/27 08:27:04;;;;;;;4.30;4.00;;;;;;;49.71;14.39;96860.23;107696;1271;37073;-77
2022/06/27 08:29:38;;;;;;;4.30;4.00;;;;;;;50.94;14.33;96862.66;107670;1271;33778;-77
2022/06/27 08:32:10;;;;;;;4.30;4.00;;;;;;;51.63;13.57;96858.63;107654;1271;32472;-77
2022/06/27 08:34:43;;;;;;;4.20;3.80;;;;;;;51.33;13.57;96858.76;107724;1271;31577;-77
2022/06/27 08:37:16;;;;;;;4.60;4.20;;;;;;;51.08;13.26;96860.13;107610;1271;32814;-77
2022/06/27 08:39:49;;;;;;;4.20;3.80;;;;;;;50.11;12.93;96860.65;107662;1271;35500;-77
2022/06/27 08:42:22;;;;;;;4.20;3.90;;;;;;;48.60;13.87;96859.38;107689;1271;33220;-78
2022/06/27 08:44:54;;;;;;;3.90;3.60;;;;;;;48.79;14.14;96856.77;107637;1271;42140;-78
2022/06/27 08:47:27;;;;;;;3.80;3.50;;;;;;;49.45;14.02;96861.38;107734;1270;33193;-77
2022/06/27 08:49:58;;;;;;;3.40;3.10;;;;;;;49.15;13.95;96859.31;107647;1271;49463;-77
2022/06/27 08:52:30;;;;;;;3.10;2.30;;;;;;;48.52;14.11;96853.42;107765;1270;34086;-77
2022/06/27 08:55:05;;;;;;;3.20;2.60;;;;;;;46.69;14.80;96853.23;107678;1271;44551;-77
2022/06/27 08:57:41;;;;;;;4.90;3.00;;;;;;;44.07;16.05;96851.15;107651;1271;33995;-77
2022/06/27 09:00:17;;;;;;;3.60;2.70;;;;;;;42.79;17.45;96848.79;107679;1271;34961;-77
2022/06/27 09:02:48;;;;;;;3.90;3.20;;;;;;;42.03;18.97;96850.40;107678;1271;47637;-77
2022/06/27 09:05:27;;;;;;;3.50;3.20;;;;;;;40.64;20.02;96853.04;107614;1270;43748;-76
2022/06/27 09:08:01;;;;;;;5.70;3.60;;;;;;;37.67;23.03;96843.66;107716;1271;42870;-76
2022/06/27 09:10:36;;;;;;;5.60;3.40;;;;;;;36.12;24.91;96844.43;107660;1271;38667;-76
2022/06/27 09:13:11;;;;;;;3.90;3.40;;;;;;;35.64;25.48;96846.95;107697;1271;35380;-76
2022/06/27 09:15:53;;;;;;;4.10;3.70;;;;;;;35.21;26.14;96844.99;107677;1271;32489;-75
2022/06/27 09:18:27;;;;;;;4.90;3.70;;;;;;;34.89;26.35;96840.08;107685;1271;36575;-76
2022/06/27 09:21:01;;;;;;;3.70;3.40;;;;;;;34.88;27.40;96845.30;107656;1271;42919;-76
2022/06/27 09:23:47;;;;;;;6.90;3.70;;;;;;;34.66;27.86;96840.48;107721;1271;37343;-76
2022/06/27 09:26:20;;;;;;;4.40;3.80;;;;;;;34.55;28.62;96836.66;107553;1271;54863;-76
2022/06/27 09:28:55;;;;;;;4.30;3.90;;;;;;;34.90;28.07;96833.70;107617;1271;37046;-76
2022/06/27 09:31:45;;;;;;;4.40;4.00;;;;;;;34.94;28.61;96834.92;107599;1271;38561;-76
2022/06/27 09:34:20;;;;;;;4.50;4.10;;;;;;;35.03;27.98;96830.43;107577;1271;43809;-77
2022/06/27 09:36:54;;;;;;;4.70;4.00;;;;;;;34.86;28.39;96829.77;107597;1271;35325;-76
2022/06/27 09:39:36;;;;;;;4.90;4.00;;;;;;;35.12;28.71;96831.69;107513;1271;84163;-77
2022/06/27 09:42:11;;;;;;;7.20;3.90;;;;;;;35.04;28.17;96828.52;107514;1271;41872;-76
2022/06/27 09:44:44;;;;;;;6.70;4.40;;;;;;;34.65;29.08;96827.91;107591;1271;38093;-76
2022/06/27 09:47:22;;;;;;;6.00;4.20;;;;;;;34.14;29.18;96826.04;107608;1271;36808;-77
2022/06/27 09:49:59;;;;;;;5.60;4.50;;;;;;;34.10;29.90;96828.02;107556;1270;36342;-76
2022/06/27 09:52:33;;;;;;;4.70;4.20;;;;;;;34.42;30.17;96821.31;107700;1271;41342;-76
2022/06/27 09:55:14;;;;;;;7.10;4.10;;;;;;;34.60;29.76;96818.21;107611;1271;35389;-75
2022/06/27 09:57:49;;;;;;;5.00;4.10;;;;;;;34.00;29.45;96825.30;107644;1271;34983;-77
2022/06/27 10:00:22;;;;;;;4.90;3.70;;;;;;;33.22;30.18;96818.98;107477;1271;254428;-78
2022/06/27 10:02:54;;;;;;;4.20;3.80;;;;;;;33.39;31.07;96815.22;107588;1271;51198;-77
2022/06/27 10:05:25;;;;;;;5.10;3.90;;;;;;;33.66;31.02;96812.63;107455;1271;159109;-77
2022/06/27 10:07:59;;;;;;;5.50;4.30;;;;;;;33.15;30.35;96813.61;107711;1271;32873;-77
2022/06/27 10:10:31;;;;;;;6.60;4.50;;;;;;;32.49;31.27;96810.92;107729;1271;34186;-76
2022/06/27 10:13:06;;;;;;;5.70;4.30;;;;;;;32.43;32.23;96809.27;107666;1271;34430;-77
2022/06/27 10:15:40;;;;;;;5.70;4.30;;;;;;;32.68;32.36;96805.90;106506;1271;1373859;-77
2022/06/27 10:18:11;;;;;;;5.20;4.10;;;;;;;32.88;32.36;96807.93;107496;1271;50733;-76
2022/06/27 10:20:47;;;;;;;5.30;4.30;;;;;;;33.27;32.49;96806.17;107509;1271;62247;-76
2022/06/27 10:23:28;;;;;;;4.00;3.60;;;;;;;33.67;31.80;96808.89;107599;1271;52269;-77
2022/06/27 10:26:01;;;;;;;5.40;3.70;;;;;;;33.78;31.82;96807.73;107686;1271;60528;-76
2022/06/27 10:28:35;;;;;;;4.60;3.80;;;;;;;33.46;31.06;96804.30;107632;1271;42359;-77
2022/06/27 10:31:17;;;;;;;5.50;3.80;;;;;;;32.90;31.42;96801.90;107555;1271;42048;-77
2022/06/27 10:33:51;;;;;;;5.40;4.00;;;;;;;32.43;31.84;96803.16;106503;1271;1997172;-78
2022/06/27 10:36:23;;;;;;;5.20;4.30;;;;;;;31.83;32.06;96800.91;107048;1271;117053;-78
2022/06/27 10:38:57;;;;;;;4.80;3.70;;;;;;;31.83;32.52;96799.27;107594;1271;41598;-77
2022/06/27 10:41:42;;;;;;;5.00;4.40;;;;;;;31.93;32.99;96800.62;107638;1271;50466;-77
2022/06/27 10:44:36;;;;;;;5.90;4.30;;;;;;;32.31;32.83;96798.42;107587;1271;91939;-76
2022/06/27 10:47:27;;;;;;;6.00;4.00;;;;;;;32.06;32.28;96797.92;107438;1271;101593;-76
2022/06/27 10:53:24;;;;;;;4.20;3.80;;;;;;;31.95;32.38;96789.86;103119;1309;545052;-75
2022/06/27 10:55:57;;;;;;;5.60;4.30;;;;;;;32.48;32.82;96786.53;106344;1283;208095;-75
2022/06/27 10:58:30;;;;;;;5.90;4.20;;;;;;;32.93;32.72;96786.33;106622;1283;61483;-75
2022/06/27 11:01:15;;;;;;;5.50;4.40;;;;;;;33.28;31.75;96779.27;106940;1283;63388;-78
2022/06/27 11:03:47;;;;;;;5.70;4.70;;;;;;;33.19;30.56;96776.09;107124;1280;38134;-77
2022/06/27 11:06:18;;;;;;;5.60;4.00;;;;;;;32.90;31.11;96774.05;106645;1279;342145;-78
2022/06/27 11:08:54;;;;;;;4.40;4.00;;;;;;;33.11;31.16;96774.06;107008;1277;70312;-78
2022/06/27 11:11:27;;;;;;;5.50;5.00;;;;;;;33.14;30.89;96773.04;107440;1271;50625;-77
2022/06/27 11:13:59;;;;;;;4.90;3.90;;;;;;;32.99;31.32;96770.29;107330;1271;134821;-77
2022/06/27 11:16:33;;;;;;;5.80;4.20;;;;;;;32.93;31.97;96766.08;107559;1273;38254;-77
2022/06/27 11:20:04;;;;;;;4.40;4.00;;;;;;;33.25;31.92;96763.34;107487;1270;63706;-78
2022/06/27 11:21:58;;;;;;;5.10;4.40;;;;;;;33.22;31.42;96763.88;107381;1271;154014;-79
2022/06/27 11:24:30;;;;;;;4.60;4.20;;;;;;;33.09;31.36;96762.33;107622;1271;58827;-78
2022/06/27 11:27:02;;;;;;;5.70;4.00;;;;;;;32.73;31.38;96759.61;107515;1271;94693;-78
2022/06/27 11:32:22;;;;;;;4.70;3.70;;;;;;;32.73;32.17;96758.98;105096;1271;2573400;-78
2022/06/27 11:34:57;;;;;;;5.80;4.40;;;;;;;32.90;31.72;96760.73;106973;1272;131689;-78
2022/06/27 11:37:32;;;;;;;4.70;3.70;;;;;;;32.79;31.27;96765.72;106939;1273;104422;-77
2022/06/27 11:40:09;;;;;;;5.80;3.90;;;;;;;32.34;31.22;96768.98;107680;1270;61831;-79
2022/06/27 11:42:44;;;;;;;6.70;4.40;;;;;;;32.35;32.08;96760.42;107491;1271;39391;-79
2022/06/27 11:45:16;;;;;;;4.60;4.20;;;;;;;32.64;31.52;96762.67;107707;1271;33298;-80
2022/06/27 11:47:48;;;;;;;4.50;4.00;;;;;;;32.53;30.78;96757.05;107702;1271;44460;-79
2022/06/27 11:50:20;;;;;;;5.50;4.00;;;;;;;32.48;31.26;96753.84;107540;1273;37300;-81
2022/06/27 11:52:53;;;;;;;4.80;4.20;;;;;;;32.52;31.44;96751.90;106231;1271;1993183;-79
2022/06/27 11:55:27;;;;;;;6.70;4.10;;;;;;;32.26;31.69;96752.09;107840;1271;39692;-79
2022/06/27 11:58:00;;;;;;;5.90;4.30;;;;;;;32.13;32.05;96753.16;107740;1271;38666;-80